createdAt,value
2024-01-28T00:02:26.751Z,103111.09
2024-01-28T00:04:54.110Z,103105.59
2024-01-28T00:07:21.025Z,103106.00
2024-01-28T00:09:48.636Z,103109.94
2024-01-28T00:12:15.624Z,103114.25
2024-01-28T00:14:42.871Z,103115.84
2024-01-28T00:17:12.064Z,103109.53
2024-01-28T00:19:39.891Z,103114.66
2024-01-28T00:22:07.369Z,103110.34
2024-01-28T00:24:34.408Z,103116.19
2024-01-28T00:27:01.625Z,103120.13
2024-01-28T00:29:31.525Z,103117.38
2024-01-28T00:32:00.332Z,103120.53
2024-01-28T00:34:27.460Z,103119.34
2024-01-28T00:36:55.081Z,103112.66
2024-01-28T00:39:23.185Z,103117.81
2024-01-28T00:41:50.300Z,103107.56
2024-01-28T00:44:17.241Z,103124.88
2024-01-28T00:46:44.259Z,103113.06
2024-01-28T00:49:12.814Z,103122.13
2024-01-28T00:51:40.152Z,103113.47
2024-01-28T00:54:08.686Z,103116.63
2024-01-28T00:56:35.552Z,103117.41
2024-01-28T00:59:02.566Z,103127.63
2024-01-28T01:01:29.640Z,103130.38
2024-01-28T01:03:57.001Z,103137.44
2024-01-28T01:06:25.448Z,103144.13
2024-01-28T01:08:52.405Z,103137.06
2024-01-28T01:11:19.787Z,103144.13
2024-01-28T01:13:46.805Z,103141.78
2024-01-28T01:16:14.031Z,103133.13
2024-01-28T01:18:41.135Z,103146.09
2024-01-28T01:21:08.110Z,103145.72
2024-01-28T01:23:35.093Z,103157.53
2024-01-28T01:26:02.107Z,103146.50
2024-01-28T01:28:33.386Z,103160.66
2024-01-28T01:31:01.380Z,103157.91
2024-01-28T01:33:28.495Z,103154.78
2024-01-28T01:35:55.634Z,103155.13
2024-01-28T01:38:23.385Z,103157.09
2024-01-28T01:40:50.663Z,103157.53
2024-01-28T01:43:18.501Z,103153.19
2024-01-28T01:45:45.776Z,103159.09
2024-01-28T01:48:14.230Z,103164.19
2024-01-28T01:50:42.291Z,103167.72
2024-01-28T01:53:11.318Z,103170.91
2024-01-28T01:55:41.702Z,103175.59
2024-01-28T01:58:09.590Z,103179.16
2024-01-28T02:00:37.813Z,103182.31
2024-01-28T02:03:05.311Z,103181.50
2024-01-28T02:05:32.754Z,103185.06
2024-01-28T02:08:00.616Z,103173.25
2024-01-28T02:10:27.698Z,103172.09
2024-01-28T02:12:54.706Z,103172.84
2024-01-28T02:15:21.933Z,103166.19
2024-01-28T02:17:49.569Z,103168.53
2024-01-28T02:20:17.075Z,103171.28
2024-01-28T02:22:43.973Z,103179.53
2024-01-28T02:25:10.985Z,103181.91
2024-01-28T02:27:40.718Z,103175.22
2024-01-28T02:30:08.272Z,103175.22
2024-01-28T02:32:35.287Z,103177.97
2024-01-28T02:35:02.991Z,103181.53
2024-01-28T02:37:30.041Z,103181.09
2024-01-28T02:39:56.967Z,103185.84
2024-01-28T02:42:24.347Z,103179.53
2024-01-28T02:44:51.439Z,103188.22
2024-01-28T02:47:18.318Z,103189.78
2024-01-28T02:49:45.406Z,103183.47
2024-01-28T02:52:12.305Z,103196.84
2024-01-28T02:54:39.475Z,103188.63
2024-01-28T02:57:06.526Z,103187.41
2024-01-28T02:59:33.470Z,103192.53
2024-01-28T03:02:00.425Z,103195.31
2024-01-28T03:04:27.496Z,103190.56
2024-01-28T03:06:55.635Z,103191.34
2024-01-28T03:09:22.706Z,103187.03
2024-01-28T03:11:49.579Z,103194.88
2024-01-28T03:14:16.522Z,103201.59
2024-01-28T03:16:43.337Z,103200.41
2024-01-28T03:19:10.884Z,103200.38
2024-01-28T03:21:38.033Z,103203.94
2024-01-28T03:24:05.213Z,103200.00
2024-01-28T03:26:35.396Z,103194.88
2024-01-28T03:29:08.672Z,103209.84
2024-01-28T03:31:35.803Z,103205.53
2024-01-28T03:34:03.023Z,103213.78
2024-01-28T03:36:30.121Z,103211.44
2024-01-28T03:38:57.066Z,103215.75
2024-01-28T03:41:24.168Z,103215.75
2024-01-28T03:43:52.222Z,103212.22
2024-01-28T03:46:19.164Z,103213.38
2024-01-28T03:48:46.178Z,103227.53
2024-01-28T03:51:13.862Z,103221.25
2024-01-28T03:53:40.935Z,103226.75
2024-01-28T03:56:08.053Z,103220.88
2024-01-28T03:58:35.042Z,103214.97
2024-01-28T04:01:02.148Z,103220.84
2024-01-28T04:03:29.242Z,103218.88
2024-01-28T04:05:56.164Z,103222.81
2024-01-28T04:08:23.202Z,103230.69
2024-01-28T04:10:50.248Z,103225.56
2024-01-28T04:13:17.388Z,103221.25
2024-01-28T04:15:44.313Z,103225.19
2024-01-28T04:18:11.402Z,103229.50
2024-01-28T04:20:39.669Z,103238.16
2024-01-28T04:23:06.680Z,103231.06
2024-01-28T04:25:33.598Z,103225.56
2024-01-28T04:28:00.435Z,103228.69
2024-01-28T04:30:27.919Z,103228.31
2024-01-28T04:32:55.037Z,103232.63
2024-01-28T04:35:22.176Z,103238.94
2024-01-28T04:37:49.020Z,103237.38
2024-01-28T04:40:16.075Z,103235.41
2024-01-28T04:42:43.111Z,103232.28
2024-01-28T04:45:11.884Z,103237.38
2024-01-28T04:47:40.042Z,103241.69
2024-01-28T04:50:08.297Z,103236.97
2024-01-28T04:52:35.328Z,103244.84
2024-01-28T04:55:02.394Z,103251.16
2024-01-28T04:57:29.609Z,103250.34
2024-01-28T04:59:56.908Z,103256.25
2024-01-28T05:02:23.770Z,103260.16
2024-01-28T05:04:50.837Z,103266.09
2024-01-28T05:07:18.993Z,103270.03
2024-01-28T05:09:46.952Z,103266.47
2024-01-28T05:12:15.123Z,103271.56
2024-01-28T05:14:42.659Z,103275.47
2024-01-28T05:17:09.585Z,103281.41
2024-01-28T05:19:37.258Z,103276.66
2024-01-28T05:22:05.370Z,103276.25
2024-01-28T05:24:32.660Z,103275.47
2024-01-28T05:27:00.239Z,103279.41
2024-01-28T05:29:27.241Z,103282.56
2024-01-28T05:31:54.195Z,103282.56
2024-01-28T05:34:21.377Z,103294.34
2024-01-28T05:36:52.060Z,103291.59
2024-01-28T05:39:19.157Z,103289.59
2024-01-28T05:41:48.255Z,103294.75
2024-01-28T05:44:16.609Z,103291.63
2024-01-28T05:46:43.553Z,103292.81
2024-01-28T05:49:12.791Z,103306.16
2024-01-28T05:51:42.700Z,103309.28
2024-01-28T05:54:10.239Z,103310.47
2024-01-28T05:56:37.194Z,103304.97
2024-01-28T05:59:04.435Z,103311.66
2024-01-28T06:01:32.189Z,103310.88
2024-01-28T06:03:59.328Z,103326.19
2024-01-28T06:06:26.484Z,103312.78
2024-01-28T06:08:56.148Z,103324.63
2024-01-28T06:11:23.944Z,103331.31
2024-01-28T06:13:50.953Z,103330.84
2024-01-28T06:16:18.909Z,103321.50
2024-01-28T06:18:46.120Z,103325.81
2024-01-28T06:21:13.449Z,103328.09
2024-01-28T06:23:42.339Z,103329.31
2024-01-28T06:26:11.880Z,103328.56
2024-01-28T06:28:39.328Z,103328.13
2024-01-28T06:31:06.226Z,103338.00
2024-01-28T06:33:33.246Z,103335.97
2024-01-28T06:36:01.407Z,103342.28
2024-01-28T06:38:28.808Z,103347.00
2024-01-28T06:40:56.804Z,103351.34
2024-01-28T06:43:26.678Z,103358.88
2024-01-28T06:45:54.325Z,103364.34
2024-01-28T06:48:22.637Z,103361.59
2024-01-28T06:50:50.733Z,103365.06
2024-01-28T06:53:17.740Z,103363.16
2024-01-28T06:55:44.728Z,103374.13
2024-01-28T06:58:11.680Z,103375.78
2024-01-28T07:00:38.845Z,103365.97
2024-01-28T07:03:06.264Z,103380.91
2024-01-28T07:05:34.074Z,103373.44
2024-01-28T07:08:01.078Z,103380.50
2024-01-28T07:10:29.356Z,103385.16
2024-01-28T07:12:56.477Z,103380.22
2024-01-28T07:15:23.428Z,103384.47
2024-01-28T07:17:53.022Z,103382.09
2024-01-28T07:20:20.436Z,103387.59
2024-01-28T07:22:47.425Z,103386.44
2024-01-28T07:25:15.277Z,103392.75
2024-01-28T07:27:42.671Z,103385.59
2024-01-28T07:30:09.899Z,103383.91
2024-01-28T07:32:39.342Z,103387.47
2024-01-28T07:35:06.850Z,103391.72
2024-01-28T07:37:34.470Z,103393.41
2024-01-28T07:40:01.385Z,103395.78
2024-01-28T07:42:28.447Z,103396.91
2024-01-28T07:44:55.386Z,103390.38
2024-01-28T07:47:22.315Z,103397.41
2024-01-28T07:49:49.495Z,103390.78
2024-01-28T07:52:16.508Z,103405.31
2024-01-28T07:54:43.459Z,103395.81
2024-01-28T07:57:10.627Z,103397.81
2024-01-28T07:59:37.612Z,103404.03
2024-01-28T08:02:06.092Z,103409.22
2024-01-28T08:04:33.262Z,103399.00
2024-01-28T08:07:00.336Z,103404.13
2024-01-28T08:09:29.378Z,103399.75
2024-01-28T08:11:56.485Z,103408.44
2024-01-28T08:14:28.596Z,103402.53
2024-01-28T08:16:56.515Z,103412.00
2024-01-28T08:19:23.630Z,103411.25
2024-01-28T08:21:50.705Z,103411.59
2024-01-28T08:24:17.668Z,103420.63
2024-01-28T08:26:45.865Z,103427.97
2024-01-28T08:29:12.782Z,103424.69
2024-01-28T08:31:39.811Z,103431.84
2024-01-28T08:34:07.625Z,103437.06
2024-01-28T08:36:36.201Z,103436.78
2024-01-28T08:39:05.528Z,103439.44
2024-01-28T08:41:36.095Z,103439.78
2024-01-28T08:44:06.313Z,103450.00
2024-01-28T08:46:33.369Z,103445.16
2024-01-28T08:49:00.367Z,103445.31
2024-01-28T08:51:27.541Z,103446.25
2024-01-28T08:53:54.541Z,103443.88
2024-01-28T08:56:22.228Z,103449.31
2024-01-28T08:58:49.178Z,103450.97
2024-01-28T09:01:17.235Z,103456.09
2024-01-28T09:03:44.604Z,103461.25
2024-01-28T09:06:11.627Z,103460.31
2024-01-28T09:08:38.719Z,103462.59
2024-01-28T09:11:05.771Z,103469.97
2024-01-28T09:13:32.796Z,103473.13
2024-01-28T09:16:00.765Z,103476.94
2024-01-28T09:18:27.865Z,103475.81
2024-01-28T09:20:55.425Z,103473.53
2024-01-28T09:23:24.841Z,103467.56
2024-01-28T09:25:51.773Z,103481.38
2024-01-28T09:28:19.161Z,103482.91
2024-01-28T09:30:47.666Z,103493.81
2024-01-28T09:33:15.333Z,103492.13
2024-01-28T09:35:44.729Z,103496.00
2024-01-28T09:38:11.646Z,103485.19
2024-01-28T09:40:39.645Z,103494.75
2024-01-28T09:43:30.428Z,103496.16
2024-01-28T09:45:58.511Z,103500.56
2024-01-28T09:48:25.967Z,103512.41
2024-01-28T09:50:54.235Z,103501.94
2024-01-28T09:53:21.258Z,103501.56
2024-01-28T09:55:49.362Z,103502.88
2024-01-28T09:58:16.489Z,103509.53
2024-01-28T10:00:44.254Z,103508.94
2024-01-28T10:03:11.354Z,103517.06
2024-01-28T10:05:40.807Z,103527.47
2024-01-28T10:08:08.307Z,103520.38
2024-01-28T10:10:36.577Z,103519.66
2024-01-28T10:13:04.741Z,103524.41
2024-01-28T10:15:35.166Z,103522.47
2024-01-28T10:18:02.637Z,103519.34
2024-01-28T10:20:30.229Z,103507.19
2024-01-28T10:22:57.205Z,103502.44
2024-01-28T10:25:24.223Z,103507.22
2024-01-28T10:27:52.059Z,103502.88
2024-01-28T10:30:20.826Z,103504.06
2024-01-28T10:32:48.276Z,103496.63
2024-01-28T10:35:18.644Z,103497.00
2024-01-28T10:37:54.429Z,103488.72
2024-01-28T10:40:25.047Z,103493.75
2024-01-28T10:42:59.363Z,103490.59
2024-01-28T10:45:28.751Z,103492.97
2024-01-28T10:47:57.005Z,103498.47
2024-01-28T10:50:29.084Z,103494.16
2024-01-28T10:52:58.270Z,103486.72
2024-01-28T10:55:26.226Z,103487.06
2024-01-28T10:57:54.887Z,103483.91
2024-01-28T11:00:23.119Z,103485.91
2024-01-28T11:02:51.256Z,103474.53
2024-01-28T11:05:19.568Z,103471.75
2024-01-28T11:07:49.089Z,103470.56
2024-01-28T11:10:18.573Z,103469.03
2024-01-28T11:12:45.737Z,103475.31
2024-01-28T11:15:16.289Z,103459.16
2024-01-28T11:17:43.915Z,103456.38
2024-01-28T11:20:13.316Z,103459.88
2024-01-28T11:22:49.418Z,103461.09
2024-01-28T11:25:21.655Z,103455.19
2024-01-28T11:27:53.750Z,103452.44
2024-01-28T11:30:22.936Z,103447.72
2024-01-28T11:32:51.420Z,103446.16
2024-01-28T11:35:18.735Z,103439.84
2024-01-28T11:37:58.889Z,103439.06
2024-01-28T11:40:33.268Z,103437.47
2024-01-28T11:43:00.903Z,103433.56
2024-01-28T11:45:28.888Z,103433.53
2024-01-28T11:47:55.932Z,103432.75
2024-01-28T11:50:22.829Z,103425.66
2024-01-28T11:52:50.722Z,103420.16
2024-01-28T11:55:18.673Z,103416.19
2024-01-28T11:57:48.291Z,103422.50
2024-01-28T12:00:16.277Z,103411.88
2024-01-28T12:02:44.243Z,103411.47
2024-01-28T12:05:12.024Z,103409.88
2024-01-28T12:07:40.216Z,103402.38
2024-01-28T12:10:09.328Z,103400.72
2024-01-28T12:12:36.443Z,103392.78
2024-01-28T12:15:04.868Z,103390.53
2024-01-28T12:17:43.730Z,103390.91
2024-01-28T12:20:24.448Z,103385.78
2024-01-28T12:22:52.051Z,103392.09
2024-01-28T12:25:23.861Z,103392.03
2024-01-28T12:27:52.807Z,103379.75
2024-01-28T12:30:21.350Z,103385.25
2024-01-28T12:32:50.839Z,103387.25
2024-01-28T12:35:18.274Z,103379.34
2024-01-28T12:37:47.990Z,103382.47
2024-01-28T12:40:14.995Z,103372.22
2024-01-28T12:42:42.521Z,103371.09
2024-01-28T12:45:11.741Z,103365.19
2024-01-28T12:47:39.202Z,103360.38
2024-01-28T12:50:07.312Z,103361.03
2024-01-28T12:52:36.539Z,103366.56
2024-01-28T12:55:07.525Z,103354.50
2024-01-28T12:57:36.909Z,103346.47
2024-01-28T13:00:07.578Z,103352.22
2024-01-28T13:02:35.352Z,103338.63
2024-01-28T13:05:03.153Z,103331.84
2024-01-28T13:07:30.250Z,103329.44
2024-01-28T13:09:58.818Z,103336.38
2024-01-28T13:12:28.288Z,103329.47
2024-01-28T13:14:56.149Z,103336.28
2024-01-28T13:17:24.338Z,103330.78
2024-01-28T13:19:55.553Z,103329.59
2024-01-28T13:22:22.638Z,103333.44
2024-01-28T13:24:53.973Z,103325.16
2024-01-28T13:27:22.256Z,103327.50
2024-01-28T13:29:50.374Z,103320.28
2024-01-28T13:32:19.352Z,103317.81
2024-01-28T13:34:47.517Z,103314.28
2024-01-28T13:37:14.763Z,103311.34
2024-01-28T13:39:42.220Z,103302.44
2024-01-28T13:42:09.712Z,103303.88
2024-01-28T13:44:37.727Z,103307.91
2024-01-28T13:47:05.354Z,103310.63
2024-01-28T13:49:33.035Z,103311.00
2024-01-28T13:52:00.157Z,103307.44
2024-01-28T13:54:27.274Z,103305.41
2024-01-28T13:56:58.434Z,103301.13
2024-01-28T13:59:25.498Z,103302.63
2024-01-28T14:01:52.576Z,103300.88
2024-01-28T14:04:19.670Z,103298.88
2024-01-28T14:06:46.828Z,103303.38
2024-01-28T14:09:17.741Z,103311.97
2024-01-28T14:11:45.965Z,103303.38
2024-01-28T14:14:13.032Z,103304.66
2024-01-28T14:16:43.314Z,103296.66
2024-01-28T14:19:10.338Z,103292.91
2024-01-28T14:21:37.451Z,103295.91
2024-01-28T14:24:04.570Z,103299.50
2024-01-28T14:26:31.656Z,103284.63
2024-01-28T14:28:58.569Z,103283.47
2024-01-28T14:31:25.786Z,103283.72
2024-01-28T14:33:54.701Z,103275.75
2024-01-28T14:36:22.106Z,103281.00
2024-01-28T14:38:49.621Z,103277.84
2024-01-28T14:41:17.449Z,103277.41
2024-01-28T14:43:45.323Z,103279.34
2024-01-28T14:46:12.891Z,103280.09
2024-01-28T14:48:41.928Z,103271.03
2024-01-28T14:51:09.143Z,103276.69
2024-01-28T14:53:37.505Z,103286.22
2024-01-28T14:56:05.197Z,103280.75
2024-01-28T14:58:32.324Z,103281.56
2024-01-28T15:00:59.617Z,103280.13
2024-01-28T15:03:26.858Z,103283.31
2024-01-28T15:05:54.342Z,103283.31
2024-01-28T15:08:22.264Z,103287.22
2024-01-28T15:10:50.693Z,103290.78
2024-01-28T15:13:17.669Z,103292.81
2024-01-28T15:15:44.767Z,103280.53
2024-01-28T15:18:13.387Z,103283.38
2024-01-28T15:20:40.633Z,103279.81
2024-01-28T15:23:07.742Z,103275.59
2024-01-28T15:25:34.741Z,103281.25
2024-01-28T15:28:01.876Z,103277.38
2024-01-28T15:30:28.930Z,103276.28
2024-01-28T15:32:56.121Z,103267.91
2024-01-28T15:35:23.805Z,103269.34
2024-01-28T15:37:51.500Z,103267.91
2024-01-28T15:40:18.945Z,103266.81
2024-01-28T15:42:46.308Z,103262.22
2024-01-28T15:45:14.332Z,103266.25
2024-01-28T15:47:43.642Z,103267.03
2024-01-28T15:50:10.999Z,103263.84
2024-01-28T15:52:37.911Z,103264.78
2024-01-28T15:55:05.204Z,103263.66
2024-01-28T15:57:32.683Z,103270.47
2024-01-28T16:00:06.822Z,103270.16
2024-01-28T16:02:35.217Z,103269.41
2024-01-28T16:05:02.549Z,103264.69
2024-01-28T16:07:29.764Z,103265.91
2024-01-28T16:09:57.772Z,103267.47
2024-01-28T16:12:26.627Z,103263.25
2024-01-28T16:14:53.583Z,103262.50
2024-01-28T16:17:24.702Z,103253.09
2024-01-28T16:19:52.234Z,103258.56
2024-01-28T16:22:20.792Z,103263.34
2024-01-28T16:24:49.337Z,103267.94
2024-01-28T16:27:17.835Z,103262.50
2024-01-28T16:29:46.607Z,103265.34
2024-01-28T16:32:13.988Z,103263.03
2024-01-28T16:34:41.278Z,103266.22
2024-01-28T16:37:08.870Z,103272.91
2024-01-28T16:39:36.506Z,103269.03
2024-01-28T16:42:03.546Z,103259.97
2024-01-28T16:44:30.541Z,103265.13
2024-01-28T16:46:57.575Z,103265.16
2024-01-28T16:49:26.043Z,103271.09
2024-01-28T16:51:53.670Z,103269.88
2024-01-28T16:54:20.683Z,103273.41
2024-01-28T16:56:48.195Z,103267.53
2024-01-28T16:59:15.597Z,103273.84
2024-01-28T17:01:44.396Z,103278.56
2024-01-28T17:04:11.642Z,103280.53
2024-01-28T17:06:39.929Z,103274.63
2024-01-28T17:09:07.053Z,103275.75
2024-01-28T17:11:34.050Z,103281.69
2024-01-28T17:14:03.978Z,103280.16
2024-01-28T17:16:31.066Z,103288.06
2024-01-28T17:18:58.206Z,103286.47
2024-01-28T17:21:25.219Z,103286.47
2024-01-28T17:23:52.409Z,103281.75
2024-01-28T17:26:19.997Z,103287.19
2024-01-28T17:28:47.006Z,103286.44
2024-01-28T17:31:14.049Z,103283.72
2024-01-28T17:33:41.328Z,103284.94
2024-01-28T17:36:08.661Z,103289.28
2024-01-28T17:38:35.743Z,103278.22
2024-01-28T17:41:03.009Z,103280.56
2024-01-28T17:43:30.001Z,103281.00
2024-01-28T17:45:57.447Z,103284.16
2024-01-28T17:48:25.563Z,103287.28
2024-01-28T17:50:53.482Z,103291.22
2024-01-28T17:53:20.423Z,103299.44
2024-01-28T17:55:47.472Z,103304.22
2024-01-28T17:58:14.508Z,103303.09
2024-01-28T18:00:41.450Z,103297.19
2024-01-28T18:03:08.633Z,103299.91
2024-01-28T18:05:35.573Z,103300.72
2024-01-28T18:08:02.687Z,103296.38
2024-01-28T18:10:31.064Z,103299.91
2024-01-28T18:12:59.172Z,103304.53
2024-01-28T18:15:27.199Z,103297.13
2024-01-28T18:17:54.964Z,103297.97
2024-01-28T18:20:24.848Z,103307.00
2024-01-28T18:22:51.750Z,103304.25
2024-01-28T18:25:19.047Z,103307.03
2024-01-28T18:27:47.558Z,103301.56
2024-01-28T18:30:14.590Z,103305.44
2024-01-28T18:32:41.812Z,103296.84
2024-01-28T18:35:09.255Z,103304.72
2024-01-28T18:37:37.753Z,103304.72
2024-01-28T18:40:05.342Z,103306.28
2024-01-28T18:42:32.579Z,103309.44
2024-01-28T18:44:59.428Z,103317.72
2024-01-28T18:47:26.824Z,103323.59
2024-01-28T18:49:53.945Z,103316.94
2024-01-28T18:52:21.097Z,103319.28
2024-01-28T18:54:48.126Z,103318.09
2024-01-28T18:57:15.279Z,103320.84
2024-01-28T18:59:42.343Z,103323.22
2024-01-28T19:02:09.621Z,103325.19
2024-01-28T19:04:36.766Z,103316.13
2024-01-28T19:07:03.906Z,103315.72
2024-01-28T19:09:30.864Z,103316.91
2024-01-28T19:11:58.793Z,103326.38
2024-01-28T19:14:27.662Z,103313.38
2024-01-28T19:16:54.787Z,103318.09
2024-01-28T19:19:22.467Z,103311.78
2024-01-28T19:21:49.472Z,103322.03
2024-01-28T19:24:16.536Z,103323.59
2024-01-28T19:26:43.790Z,103326.38
2024-01-28T19:29:10.904Z,103329.13
2024-01-28T19:31:38.048Z,103325.19
2024-01-28T19:34:04.983Z,103325.16
2024-01-28T19:36:36.851Z,103329.91
2024-01-28T19:39:04.501Z,103331.84
2024-01-28T19:41:31.631Z,103334.22
2024-01-28T19:43:58.900Z,103328.31
2024-01-28T19:46:27.440Z,103335.41
2024-01-28T19:48:55.289Z,103333.47
2024-01-28T19:51:26.470Z,103331.09
2024-01-28T19:53:54.935Z,103332.25
2024-01-28T19:56:21.888Z,103341.69
2024-01-28T19:58:49.603Z,103342.50
2024-01-28T20:01:16.766Z,103341.72
2024-01-28T20:03:43.953Z,103327.56
2024-01-28T20:06:19.070Z,103342.50
2024-01-28T20:08:55.207Z,103349.59
2024-01-28T20:11:22.092Z,103344.09
2024-01-28T20:13:49.848Z,103344.91
2024-01-28T20:16:17.168Z,103339.78
2024-01-28T20:18:44.286Z,103354.34
2024-01-28T20:21:11.209Z,103350.38
2024-01-28T20:23:40.489Z,103348.81
2024-01-28T20:26:07.525Z,103347.63
2024-01-28T20:28:36.143Z,103342.53
2024-01-28T20:31:03.272Z,103348.00
2024-01-28T20:33:30.394Z,103342.50
2024-01-28T20:35:57.642Z,103349.19
2024-01-28T20:38:25.660Z,103346.47
2024-01-28T20:40:52.869Z,103341.34
2024-01-28T20:43:19.900Z,103338.56
2024-01-28T20:45:47.210Z,103341.31
2024-01-28T20:48:14.841Z,103335.06
2024-01-28T20:50:41.946Z,103340.16
2024-01-28T20:53:09.116Z,103344.09
2024-01-28T20:55:35.968Z,103337.41
2024-01-28T20:58:03.180Z,103333.06
2024-01-28T21:00:30.221Z,103340.16
2024-01-28T21:02:57.522Z,103339.75
2024-01-28T21:05:24.741Z,103329.91
2024-01-28T21:07:51.796Z,103335.00
2024-01-28T21:10:18.915Z,103335.81
2024-01-28T21:12:45.947Z,103333.81
2024-01-28T21:15:13.006Z,103324.34
2024-01-28T21:17:40.179Z,103333.44
2024-01-28T21:20:07.710Z,103334.59
2024-01-28T21:22:35.385Z,103335.38
2024-01-28T21:25:02.477Z,103334.53
2024-01-28T21:27:29.808Z,103340.78
2024-01-28T21:29:57.900Z,103336.16
2024-01-28T21:32:24.926Z,103340.47
2024-01-28T21:34:52.005Z,103336.88
2024-01-28T21:37:19.204Z,103338.84
2024-01-28T21:39:46.383Z,103342.34
2024-01-28T21:42:14.576Z,103338.81
2024-01-28T21:44:41.648Z,103341.19
2024-01-28T21:47:08.919Z,103342.38
2024-01-28T21:49:40.156Z,103340.00
2024-01-28T21:52:08.085Z,103354.59
2024-01-28T21:54:35.130Z,103342.44
2024-01-28T21:57:02.269Z,103354.63
2024-01-28T21:59:29.184Z,103344.78
2024-01-28T22:01:56.282Z,103345.91
2024-01-28T22:04:24.193Z,103343.16
2024-01-28T22:06:51.535Z,103340.78
2024-01-28T22:09:18.565Z,103345.09
2024-01-28T22:11:48.674Z,103341.53
2024-01-28T22:14:16.376Z,103343.47
2024-01-28T22:16:43.474Z,103344.69
2024-01-28T22:19:10.984Z,103349.00
2024-01-28T22:21:38.097Z,103347.00
2024-01-28T22:24:05.480Z,103351.72
2024-01-28T22:26:32.452Z,103340.72
2024-01-28T22:28:59.583Z,103343.94
2024-01-28T22:31:26.735Z,103346.28
2024-01-28T22:33:53.824Z,103345.94
2024-01-28T22:36:20.923Z,103353.84
2024-01-28T22:38:47.822Z,103348.34
2024-01-28T22:41:16.749Z,103348.03
2024-01-28T22:43:44.734Z,103356.59
2024-01-28T22:46:11.917Z,103362.88
2024-01-28T22:48:39.381Z,103359.72
2024-01-28T22:51:06.606Z,103365.59
2024-01-28T22:53:33.747Z,103368.28
2024-01-28T22:56:03.458Z,103358.88
2024-01-28T22:58:30.400Z,103364.06
2024-01-28T23:00:57.566Z,103362.06
2024-01-28T23:03:24.617Z,103368.00
2024-01-28T23:05:51.760Z,103368.00
2024-01-28T23:08:18.681Z,103371.56
2024-01-28T23:10:45.637Z,103369.16
2024-01-28T23:13:12.644Z,103365.63
2024-01-28T23:15:39.740Z,103363.69
2024-01-28T23:18:06.851Z,103353.06
2024-01-28T23:20:34.977Z,103365.28
2024-01-28T23:23:02.219Z,103361.34
2024-01-28T23:25:29.217Z,103376.25
2024-01-28T23:27:56.643Z,103371.91
2024-01-28T23:30:24.311Z,103366.06
2024-01-28T23:32:51.368Z,103370.00
2024-01-28T23:35:18.474Z,103359.41
2024-01-28T23:37:45.331Z,103360.16
2024-01-28T23:40:12.819Z,103356.56
2024-01-28T23:42:40.078Z,103357.59
2024-01-28T23:45:10.703Z,103352.63
2024-01-28T23:47:37.790Z,103346.69
2024-01-28T23:50:08.404Z,103351.81
2024-01-28T23:52:35.743Z,103349.03
2024-01-28T23:55:03.458Z,103343.91
2024-01-28T23:57:30.804Z,103348.69
2024-01-28T23:59:57.762Z,103349.78
